Weather at Amderma Airport

Public forecast

Using degrees Celsius for public forecast. Weather courtesy of forecast.io.

Closest aviation weather report (METAR) to Amderma Airport

Report is more than 6 hours old.

Closest report is Sabetta International Airport, 227.5 nm (421.3 km) ENE.

2022/11/14 15:30 (retrieved 2 years ago)

USDA 141530Z AUTO 19003MPS 9999 NCD M22/M24 Q1018 RMK QFE762/1016

Closest aviation forecast (TAF) to Amderma Airport

Forecast is more than 12 hours old.

Closest forecast is Norilsk-Alykel Airport, 537.7 nm (995.8 km) E.

2023/02/22 21:21 (retrieved 1 year ago)

TAF UOOO 221958Z 2221/2321 16013G21MPS 0500 SN BLSN BKN016 BECMG 2222/2224 0250 SN BLSN TEMPO 2300/2309 BKN003 OVC011 BECMG 2310/2313 16008G16MPS 1200 -SN BLSN BECMG 2315/2318 3200 BLSN